createdAt,value
2018-09-09T00:05:11.468Z,13.20
2018-09-09T00:10:40.837Z,13.10
2018-09-09T00:16:10.215Z,13.10
2018-09-09T00:21:40.379Z,13.10
2018-09-09T00:27:10.584Z,13.10
2018-09-09T00:32:39.951Z,13.00
2018-09-09T00:38:09.301Z,13.00
2018-09-09T00:43:38.615Z,12.90
2018-09-09T00:49:13.601Z,12.80
2018-09-09T00:54:42.845Z,12.70
2018-09-09T01:00:12.044Z,12.70
2018-09-09T01:05:41.365Z,12.60
2018-09-09T01:11:11.843Z,12.60
2018-09-09T01:16:41.191Z,12.50
2018-09-09T01:22:10.471Z,12.50
2018-09-09T01:27:39.814Z,12.40
2018-09-09T01:33:09.052Z,12.30
2018-09-09T01:38:38.290Z,12.30
2018-09-09T01:44:08.330Z,12.20
2018-09-09T01:49:37.632Z,12.20
2018-09-09T01:55:07.438Z,12.20
2018-09-09T02:00:36.707Z,12.10
2018-09-09T02:06:06.040Z,12.10
2018-09-09T02:11:35.337Z,12.10
2018-09-09T02:17:04.627Z,12.10
2018-09-09T02:22:33.807Z,12.00
2018-09-09T02:28:03.076Z,12.00
2018-09-09T02:33:32.307Z,12.00
2018-09-09T02:39:01.583Z,11.90
2018-09-09T02:44:30.794Z,11.90
2018-09-09T02:49:59.979Z,11.90
2018-09-09T02:55:30.263Z,11.90
2018-09-09T03:00:59.519Z,11.90
2018-09-09T03:06:28.837Z,11.80
2018-09-09T03:11:58.061Z,11.80
2018-09-09T03:17:27.804Z,11.70
2018-09-09T03:22:57.011Z,11.70
2018-09-09T03:28:26.284Z,11.70
2018-09-09T03:33:55.496Z,11.60
2018-09-09T03:39:24.720Z,11.60
2018-09-09T03:44:53.918Z,11.60
2018-09-09T03:50:23.119Z,11.50
2018-09-09T03:55:52.275Z,11.50
2018-09-09T04:01:21.479Z,11.40
2018-09-09T04:06:50.703Z,11.40
2018-09-09T04:12:19.967Z,11.40
2018-09-09T04:17:49.199Z,11.40
2018-09-09T04:23:18.496Z,11.30
2018-09-09T04:28:47.682Z,11.30
2018-09-09T04:34:16.873Z,11.30
2018-09-09T04:39:46.082Z,11.30
2018-09-09T04:45:15.370Z,11.30
2018-09-09T04:50:44.591Z,11.30
2018-09-09T04:56:13.851Z,11.20
2018-09-09T05:01:43.072Z,11.30
2018-09-09T05:07:12.358Z,11.30
2018-09-09T05:12:41.647Z,11.50
2018-09-09T05:18:10.928Z,11.60
2018-09-09T05:23:40.195Z,11.70
2018-09-09T05:29:09.480Z,11.90
2018-09-09T05:34:38.768Z,12.00
2018-09-09T05:40:08.147Z,12.20
2018-09-09T05:45:37.404Z,12.30
2018-09-09T05:51:07.893Z,12.50
2018-09-09T05:56:37.307Z,12.70
2018-09-09T06:02:06.663Z,12.90
2018-09-09T06:07:35.959Z,13.10
2018-09-09T06:13:05.239Z,13.40
2018-09-09T06:18:35.583Z,13.60
2018-09-09T06:24:05.972Z,13.90
2018-09-09T06:29:35.264Z,14.10
2018-09-09T06:35:04.614Z,14.40
2018-09-09T06:40:33.869Z,14.70
2018-09-09T06:46:03.143Z,14.90
2018-09-09T06:51:32.467Z,15.10
2018-09-09T06:57:01.804Z,15.40
2018-09-09T07:02:31.176Z,15.60
2018-09-09T07:08:01.551Z,15.90
2018-09-09T07:13:30.739Z,16.20
2018-09-09T07:19:02.550Z,16.50
2018-09-09T07:24:31.792Z,16.70
2018-09-09T07:30:01.160Z,17.00
2018-09-09T07:35:30.556Z,17.20
2018-09-09T07:40:59.814Z,17.50
2018-09-09T07:46:29.093Z,17.70
2018-09-09T07:51:58.352Z,17.90
2018-09-09T07:57:27.652Z,18.20
2018-09-09T08:02:56.947Z,18.40
2018-09-09T08:08:26.673Z,18.70
2018-09-09T08:13:56.530Z,18.90
2018-09-09T08:19:26.948Z,19.20
2018-09-09T08:24:56.445Z,19.40
2018-09-09T08:30:25.763Z,19.70
2018-09-09T08:35:55.043Z,19.90
2018-09-09T08:41:25.040Z,20.10
2018-09-09T08:46:54.807Z,20.20
2018-09-09T08:52:33.496Z,20.40
2018-09-09T08:58:04.985Z,20.60
2018-09-09T09:03:37.812Z,20.80
2018-09-09T09:09:09.852Z,21.00
2018-09-09T09:14:40.673Z,21.30
2018-09-09T09:20:10.186Z,21.50
2018-09-09T09:25:45.743Z,21.70
2018-09-09T09:31:15.081Z,21.70
2018-09-09T09:36:44.683Z,21.90
2018-09-09T09:42:14.541Z,22.10
2018-09-09T09:47:43.971Z,22.40
2018-09-09T09:53:13.374Z,22.70
2018-09-09T09:58:42.898Z,22.90
2018-09-09T10:04:15.948Z,23.10
2018-09-09T10:09:45.697Z,23.40
2018-09-09T10:15:16.571Z,23.70
2018-09-09T10:20:47.143Z,23.90
2018-09-09T10:26:16.563Z,24.20
2018-09-09T10:31:46.190Z,24.30
2018-09-09T10:37:15.676Z,24.30
2018-09-09T10:42:46.210Z,24.30
2018-09-09T10:48:15.636Z,24.50
2018-09-09T10:53:45.209Z,24.60
2018-09-09T10:59:14.631Z,24.60
2018-09-09T11:04:45.180Z,24.60
2018-09-09T11:10:15.244Z,24.70
2018-09-09T11:15:44.639Z,24.80
2018-09-09T11:21:14.054Z,24.90
2018-09-09T11:26:43.393Z,25.10
2018-09-09T11:32:12.773Z,25.30
2018-09-09T11:37:42.474Z,25.40
2018-09-09T11:43:12.075Z,25.20
2018-09-09T11:48:41.466Z,25.10
2018-09-09T11:54:10.851Z,25.10
2018-09-09T11:59:40.231Z,25.10
2018-09-09T12:05:10.286Z,25.10
2018-09-09T12:10:39.855Z,25.20
2018-09-09T12:16:09.213Z,25.40
2018-09-09T12:21:38.575Z,25.60
2018-09-09T12:27:08.567Z,25.60
2018-09-09T12:32:38.053Z,25.60
2018-09-09T12:38:07.693Z,25.60
2018-09-09T12:43:42.452Z,25.50
2018-09-09T12:49:11.988Z,25.40
2018-09-09T12:54:41.493Z,25.10
2018-09-09T13:00:11.187Z,25.10
2018-09-09T13:05:40.648Z,25.50
2018-09-09T13:11:11.094Z,25.70
2018-09-09T13:16:40.559Z,25.40
2018-09-09T13:22:10.366Z,25.70
2018-09-09T13:27:39.775Z,26.20
2018-09-09T13:33:09.331Z,26.30
2018-09-09T13:38:38.831Z,26.10
2018-09-09T13:44:08.263Z,26.60
2018-09-09T13:49:38.416Z,27.80
2018-09-09T13:55:08.303Z,28.70
2018-09-09T14:00:37.752Z,29.60
2018-09-09T14:06:07.506Z,29.90
2018-09-09T14:11:38.932Z,30.50
2018-09-09T14:17:08.519Z,31.90
2018-09-09T14:22:38.114Z,33.30
2018-09-09T14:28:07.549Z,32.80
2018-09-09T14:33:37.107Z,31.70
2018-09-09T14:39:09.279Z,31.30
2018-09-09T14:44:39.160Z,30.40
2018-09-09T14:50:08.813Z,32.50
2018-09-09T14:55:38.369Z,33.90
2018-09-09T15:01:08.308Z,34.50
2018-09-09T15:06:38.283Z,34.90
2018-09-09T15:12:08.033Z,32.70
2018-09-09T15:17:38.386Z,30.70
2018-09-09T15:23:08.376Z,29.40
2018-09-09T15:28:39.064Z,28.50
2018-09-09T15:34:08.973Z,27.80
2018-09-09T15:39:39.187Z,27.30
2018-09-09T15:45:09.007Z,26.60
2018-09-09T15:50:40.022Z,25.90
2018-09-09T15:56:09.665Z,25.40
2018-09-09T16:01:39.185Z,25.00
2018-09-09T16:07:08.716Z,24.60
2018-09-09T16:12:38.988Z,24.30
2018-09-09T16:18:08.814Z,24.00
2018-09-09T16:23:39.143Z,23.80
2018-09-09T16:29:08.850Z,23.50
2018-09-09T16:34:38.280Z,23.30
2018-09-09T16:40:07.887Z,23.20
2018-09-09T16:45:37.576Z,23.00
2018-09-09T16:51:08.489Z,22.80
2018-09-09T16:56:38.047Z,22.60
2018-09-09T17:02:07.667Z,22.50
2018-09-09T17:07:37.606Z,22.40
2018-09-09T17:13:09.779Z,22.30
2018-09-09T17:18:39.809Z,22.20
2018-09-09T17:24:10.319Z,22.00
2018-09-09T17:29:39.847Z,21.90
2018-09-09T17:35:09.395Z,21.80
2018-09-09T17:40:38.991Z,21.60
2018-09-09T17:46:08.512Z,21.40
2018-09-09T17:51:38.209Z,21.20
2018-09-09T17:57:07.552Z,21.00
2018-09-09T18:02:37.902Z,20.90
2018-09-09T18:08:07.499Z,20.70
2018-09-09T18:13:37.100Z,20.60
2018-09-09T18:19:06.465Z,20.40
2018-09-09T18:24:35.770Z,20.20
2018-09-09T18:30:05.209Z,20.00
2018-09-09T18:35:34.542Z,19.80
2018-09-09T18:41:03.995Z,19.70
2018-09-09T18:46:33.432Z,19.50
2018-09-09T18:52:03.664Z,19.30
2018-09-09T18:57:32.968Z,19.10
2018-09-09T19:03:02.185Z,19.00
2018-09-09T19:08:31.540Z,18.90
2018-09-09T19:14:00.854Z,18.70
2018-09-09T19:19:32.322Z,18.50
2018-09-09T19:25:01.624Z,18.30
2018-09-09T19:30:30.822Z,18.10
2018-09-09T19:36:00.110Z,17.90
2018-09-09T19:41:29.300Z,17.70
2018-09-09T19:46:58.505Z,17.50
2018-09-09T19:52:28.714Z,17.30
2018-09-09T19:57:58.039Z,17.10
2018-09-09T20:03:27.339Z,17.00
2018-09-09T20:08:56.566Z,16.90
2018-09-09T20:14:25.780Z,16.80
2018-09-09T20:19:55.174Z,16.60
2018-09-09T20:25:24.380Z,16.60
2018-09-09T20:30:54.687Z,16.40
2018-09-09T20:36:35.941Z,16.30
2018-09-09T20:42:05.713Z,16.20
2018-09-09T20:47:35.020Z,16.10
2018-09-09T20:53:04.432Z,16.00
2018-09-09T20:58:33.651Z,15.90
2018-09-09T21:04:08.180Z,15.80
2018-09-09T21:09:37.562Z,15.70
2018-09-09T21:15:08.234Z,15.70
2018-09-09T21:20:37.620Z,15.60
2018-09-09T21:26:07.471Z,15.50
2018-09-09T21:31:36.878Z,15.40
2018-09-09T21:37:06.296Z,15.30
2018-09-09T21:42:35.616Z,15.20
2018-09-09T21:48:07.359Z,15.10
2018-09-09T21:53:37.446Z,15.10
2018-09-09T21:59:07.904Z,15.00
2018-09-09T22:04:38.126Z,14.90
2018-09-09T22:10:07.804Z,14.90
2018-09-09T22:15:37.194Z,14.90
2018-09-09T22:21:06.596Z,14.90
2018-09-09T22:26:35.871Z,14.80
2018-09-09T22:32:07.438Z,14.80
2018-09-09T22:37:38.544Z,14.70
2018-09-09T22:43:07.840Z,14.70
2018-09-09T22:48:37.506Z,14.70
2018-09-09T22:54:07.158Z,14.60
2018-09-09T22:59:37.648Z,14.60
2018-09-09T23:05:07.272Z,14.50
2018-09-09T23:10:36.819Z,14.50
2018-09-09T23:16:07.579Z,14.40
2018-09-09T23:21:36.974Z,14.40
2018-09-09T23:27:06.697Z,14.40
2018-09-09T23:32:35.985Z,14.30
2018-09-09T23:38:05.197Z,14.30
2018-09-09T23:43:34.580Z,14.20
2018-09-09T23:49:03.795Z,14.10
2018-09-09T23:54:33.076Z,14.10
